Time;durP1;ratioP1;P1;durP2;ratioP2;P2;SDS_P1;SDS_P2;PMS_P1;PMS_P2;Temp;Humidity;BMP_temperature;BMP_pressure;BME280_temperature;BME280_humidity;BME280_pressure;Samples;Min_cycle;Max_cycle;Signal;HPM_P1;HPM_P2
2021/01/31 00:01:33;;;;;;;17.17;6.18;;;;;;;10.58;74.46;98796.31;5061236;28;20025;-77
2021/01/31 00:03:59;;;;;;;8.77;4.72;;;;;;;10.62;74.25;98789.56;5062343;28;20056;-76
2021/01/31 00:06:25;;;;;;;12.40;3.45;;;;;;;10.79;74.02;98776.03;5060666;28;20088;-77
2021/01/31 00:08:50;;;;;;;7.18;3.30;;;;;;;10.96;74.55;98781.56;5059067;28;20043;-77
2021/01/31 00:11:17;;;;;;;6.00;2.83;;;;;;;11.11;74.04;98764.88;5060466;28;20096;-77
2021/01/31 00:13:44;;;;;;;8.07;3.78;;;;;;;11.12;74.17;98783.16;5061399;28;20112;-78
2021/01/31 00:16:10;;;;;;;12.93;3.92;;;;;;;11.13;73.86;98776.38;5060830;28;20025;-77
2021/01/31 00:18:36;;;;;;;8.90;3.00;;;;;;;11.13;74.41;98781.94;5060829;28;20035;-79
2021/01/31 00:21:02;;;;;;;5.82;2.83;;;;;;;11.13;74.00;98765.25;5059257;28;20025;-77
2021/01/31 00:23:29;;;;;;;11.60;3.50;;;;;;;11.23;74.78;98767.22;5059524;28;20047;-77
2021/01/31 00:25:55;;;;;;;8.32;2.40;;;;;;;11.42;75.01;98766.78;5059765;28;20025;-77
2021/01/31 00:28:24;;;;;;;6.57;2.38;;;;;;;11.49;75.24;98766.75;5058482;28;20029;-77
2021/01/31 00:30:50;;;;;;;8.88;1.88;;;;;;;11.54;75.47;98769.09;5058524;28;20078;-77
2021/01/31 00:33:24;;;;;;;9.07;3.25;;;;;;;11.54;76.20;98766.31;5058685;28;20033;-77
2021/01/31 00:35:52;;;;;;;10.88;3.60;;;;;;;11.59;76.06;98764.31;5059706;28;20029;-75
2021/01/31 00:38:21;;;;;;;3.95;2.58;;;;;;;11.60;75.93;98749.19;5058801;28;20033;-77
2021/01/31 00:40:46;;;;;;;7.57;3.13;;;;;;;11.61;75.46;98739.63;5058661;28;20086;-77
2021/01/31 00:43:13;;;;;;;8.70;2.75;;;;;;;11.68;74.33;98737.63;5058361;28;20025;-77
2021/01/31 00:45:39;;;;;;;4.82;2.55;;;;;;;11.73;72.96;98726.06;5059689;28;20108;-73
2021/01/31 00:48:05;;;;;;;8.48;2.55;;;;;;;11.82;72.14;98717.25;5059540;28;20067;-77
2021/01/31 00:50:33;;;;;;;7.68;2.75;;;;;;;11.80;72.70;98719.66;5062239;28;20075;-77
2021/01/31 00:52:59;;;;;;;12.10;3.10;;;;;;;11.72;73.25;98704.19;5059817;28;20116;-77
2021/01/31 00:55:25;;;;;;;9.93;2.75;;;;;;;11.78;73.73;98710.91;5061098;28;20021;-77
2021/01/31 00:57:51;;;;;;;15.27;5.70;;;;;;;11.64;74.34;98700.63;5062448;28;20055;-77
2021/01/31 01:00:21;;;;;;;10.50;4.20;;;;;;;11.41;75.54;98676.06;5054651;28;20032;-77
2021/01/31 01:02:48;;;;;;;12.75;4.15;;;;;;;11.49;75.58;98699.91;5058777;28;20028;-77
2021/01/31 01:05:15;;;;;;;13.00;3.90;;;;;;;11.40;76.29;98682.84;5060045;28;20032;-77
2021/01/31 01:07:42;;;;;;;15.55;4.80;;;;;;;11.47;75.95;98668.88;5059814;28;20025;-77
2021/01/31 01:10:12;;;;;;;12.98;3.90;;;;;;;11.40;76.99;98677.28;5059631;28;20029;-77
2021/01/31 01:12:38;;;;;;;6.38;2.72;;;;;;;11.35;77.38;98660.19;5060647;28;20033;-76
2021/01/31 01:15:06;;;;;;;12.73;3.35;;;;;;;11.34;78.27;98659.38;5059513;28;20426;-77
2021/01/31 01:17:32;;;;;;;12.55;3.20;;;;;;;11.40;78.41;98652.22;5060462;28;20125;-77
2021/01/31 01:19:57;;;;;;;17.70;4.10;;;;;;;11.43;77.85;98637.47;5059646;28;20053;-77
2021/01/31 01:22:23;;;;;;;9.10;3.67;;;;;;;11.37;78.22;98627.94;5059806;28;20079;-77
2021/01/31 01:24:52;;;;;;;7.85;3.33;;;;;;;11.37;77.82;98619.59;5059372;28;20087;-77
2021/01/31 01:27:22;;;;;;;3.83;2.40;;;;;;;11.35;78.29;98624.00;5060183;28;20025;-76
2021/01/31 01:29:48;;;;;;;8.70;2.85;;;;;;;11.35;78.21;98612.88;5060595;28;20025;-78
2021/01/31 01:32:14;;;;;;;5.80;2.40;;;;;;;11.34;78.11;98608.47;5059587;28;20041;-77
2021/01/31 01:34:42;;;;;;;7.50;3.25;;;;;;;11.20;78.66;98603.78;5060041;28;20162;-77
2021/01/31 01:37:10;;;;;;;6.00;1.60;;;;;;;11.18;78.50;98595.81;5061943;28;20090;-77
2021/01/31 01:39:36;;;;;;;6.03;1.52;;;;;;;11.10;77.59;98597.06;5060836;28;20040;-78
2021/01/31 01:42:04;;;;;;;4.43;2.22;;;;;;;11.05;77.42;98591.13;5060741;28;20059;-77
2021/01/31 01:44:33;;;;;;;4.03;1.60;;;;;;;10.93;77.56;98584.81;5060782;28;20029;-77
2021/01/31 01:47:03;;;;;;;3.35;1.88;;;;;;;10.90;76.85;98582.84;5060915;28;20029;-77
2021/01/31 01:49:32;;;;;;;10.15;4.05;;;;;;;10.76;77.77;98591.25;5060848;28;20040;-77
2021/01/31 01:52:09;;;;;;;7.15;2.78;;;;;;;10.72;78.28;98580.13;5060591;28;20032;-77
2021/01/31 01:54:41;;;;;;;8.38;4.57;;;;;;;10.65;77.80;98573.78;5060664;28;20032;-77
2021/01/31 01:57:35;;;;;;;9.23;2.75;;;;;;;10.77;77.16;98551.09;5059803;28;20395;-77
2021/01/31 02:00:05;;;;;;;11.15;4.47;;;;;;;10.71;77.84;98556.28;5050845;28;20044;-77
2021/01/31 02:02:44;;;;;;;24.17;11.00;;;;;;;10.69;78.49;98546.75;5061561;28;20037;-77
2021/01/31 02:05:13;;;;;;;9.95;4.65;;;;;;;10.73;77.64;98528.06;5060601;28;20538;-78
2021/01/31 02:07:41;;;;;;;18.65;8.75;;;;;;;10.73;78.64;98553.09;5060647;28;20028;-77
2021/01/31 02:10:09;;;;;;;6.88;3.20;;;;;;;10.83;79.88;98541.13;5061770;28;20024;-77
2021/01/31 02:12:34;;;;;;;7.35;3.10;;;;;;;10.80;79.19;98536.38;5060314;28;20025;-77
2021/01/31 02:15:05;;;;;;;7.13;2.80;;;;;;;10.78;79.75;98526.84;5060829;28;20029;-77
2021/01/31 02:17:37;;;;;;;4.30;2.40;;;;;;;10.79;79.88;98522.88;5058778;28;20033;-77
2021/01/31 02:20:20;;;;;;;11.63;4.82;;;;;;;10.71;80.72;98528.47;5059499;28;20029;-76
2021/01/31 02:23:04;;;;;;;8.20;4.18;;;;;;;10.83;81.15;98532.78;5060050;28;20025;-76
2021/01/31 02:25:52;;;;;;;18.23;7.72;;;;;;;10.88;82.28;98526.81;5057275;28;20033;-76
2021/01/31 02:28:48;;;;;;;5.43;2.50;;;;;;;10.86;81.34;98506.13;5059178;28;20539;-76
2021/01/31 02:31:25;;;;;;;7.45;3.30;;;;;;;10.89;81.25;98499.78;5060319;28;20028;-77
2021/01/31 02:34:16;;;;;;;14.15;7.85;;;;;;;10.81;81.96;98504.56;5064045;28;20032;-76
2021/01/31 02:36:54;;;;;;;8.05;4.30;;;;;;;10.75;81.91;98483.94;5063719;28;20029;-76
2021/01/31 02:39:37;;;;;;;5.07;2.70;;;;;;;10.79;81.70;98495.84;5063548;28;20123;-76
2021/01/31 02:42:28;;;;;;;1.55;1.13;;;;;;;11.11;80.66;98473.38;5063751;28;20029;-76
2021/01/31 02:45:07;;;;;;;5.65;2.10;;;;;;;11.24;80.20;98482.06;5061640;28;20040;-76
2021/01/31 02:47:33;;;;;;;4.22;1.75;;;;;;;11.11;80.65;98480.94;5061100;28;20029;-76
2021/01/31 02:50:06;;;;;;;7.13;1.88;;;;;;;10.99;81.00;98471.88;5045595;28;20033;-76
2021/01/31 02:52:49;;;;;;;4.50;2.17;;;;;;;10.74;82.36;98416.38;5060528;28;20025;-76
2021/01/31 02:55:40;;;;;;;4.50;1.88;;;;;;;10.55;83.41;98393.88;5057955;28;20119;-76
2021/01/31 02:58:42;;;;;;;5.82;2.67;;;;;;;10.38;83.63;98404.66;5044150;28;20041;-76
2021/01/31 03:01:13;;;;;;;4.32;2.33;;;;;;;10.35;85.18;98416.59;5030259;28;20036;-76
2021/01/31 03:04:01;;;;;;;6.00;2.17;;;;;;;10.29;84.71;98437.69;5062467;28;20044;-76
2021/01/31 03:06:33;;;;;;;8.10;2.88;;;;;;;10.22;85.38;98419.00;5062270;28;20029;-76
2021/01/31 03:09:22;;;;;;;4.18;1.88;;;;;;;10.23;85.70;98425.38;5062911;28;20036;-77
2021/01/31 03:12:00;;;;;;;4.85;2.25;;;;;;;10.22;86.18;98429.31;5063609;28;20028;-76
2021/01/31 03:14:30;;;;;;;7.57;2.70;;;;;;;10.20;85.83;98426.16;5065227;28;20545;-76
2021/01/31 03:17:20;;;;;;;9.77;2.20;;;;;;;10.21;85.46;98411.06;5065148;28;20021;-76
2021/01/31 03:19:51;;;;;;;9.05;2.42;;;;;;;10.16;86.23;98405.91;5064345;28;20380;-76
2021/01/31 03:22:36;;;;;;;11.63;2.22;;;;;;;10.23;86.20;98394.78;5065228;28;20028;-77
2021/01/31 03:25:07;;;;;;;5.25;2.00;;;;;;;10.36;86.29;98404.28;5066181;28;20507;-77
2021/01/31 03:27:41;;;;;;;7.18;2.95;;;;;;;10.29;86.04;98390.41;5063885;28;20111;-77
2021/01/31 03:30:12;;;;;;;4.85;2.60;;;;;;;10.21;86.75;98386.03;5062128;28;20032;-77
2021/01/31 03:33:02;;;;;;;6.18;2.60;;;;;;;10.26;86.54;98388.44;5061887;28;20051;-77
2021/01/31 03:35:34;;;;;;;7.85;3.30;;;;;;;10.54;85.80;98368.03;5060976;28;20068;-77
2021/01/31 03:38:20;;;;;;;5.85;2.60;;;;;;;10.18;85.93;98347.97;5062844;28;20058;-76
2021/01/31 03:40:51;;;;;;;7.90;4.20;;;;;;;10.43;86.02;98398.66;5059494;28;20055;-76
2021/01/31 03:43:17;;;;;;;25.70;14.93;;;;;;;10.42;86.21;98401.88;5059021;28;20036;-76
2021/01/31 03:45:58;;;;;;;19.58;12.65;;;;;;;10.38;86.41;98392.75;5061490;28;20029;-76
2021/01/31 03:48:28;;;;;;;11.95;7.25;;;;;;;10.52;85.82;98387.13;5058762;28;20029;-76
2021/01/31 03:50:54;;;;;;;8.38;2.78;;;;;;;10.55;85.48;98379.97;5059827;28;20029;-76
2021/01/31 03:53:20;;;;;;;7.55;3.03;;;;;;;10.62;84.54;98374.34;5061323;28;20040;-76
2021/01/31 03:55:46;;;;;;;8.63;2.72;;;;;;;10.83;84.23;98368.66;5060967;28;20037;-77
2021/01/31 03:58:16;;;;;;;9.25;2.45;;;;;;;11.01;83.16;98363.72;5061496;28;20028;-76
2021/01/31 04:00:55;;;;;;;6.82;2.13;;;;;;;11.38;82.40;98353.06;5061601;28;20506;-76
2021/01/31 04:03:34;;;;;;;6.90;2.67;;;;;;;11.58;81.93;98347.72;5061850;28;20475;-77
2021/01/31 04:06:08;;;;;;;7.72;3.95;;;;;;;11.75;81.60;98352.28;5061769;28;20059;-76
2021/01/31 04:08:35;;;;;;;14.07;3.45;;;;;;;11.85;81.34;98334.69;5061580;28;20021;-76
2021/01/31 04:11:00;;;;;;;10.65;3.33;;;;;;;11.87;81.25;98337.84;5062223;28;20033;-75
2021/01/31 04:13:30;;;;;;;7.47;3.35;;;;;;;11.89;80.67;98334.66;5062985;28;20171;-76
2021/01/31 04:15:59;;;;;;;13.77;2.70;;;;;;;11.94;80.32;98321.06;5062805;28;20025;-77
2021/01/31 04:18:25;;;;;;;8.40;2.92;;;;;;;12.02;80.48;98333.69;5061894;28;20528;-76
2021/01/31 04:20:52;;;;;;;12.13;3.03;;;;;;;11.95;81.15;98336.56;5044757;28;20025;-75
2021/01/31 04:23:18;;;;;;;9.80;3.55;;;;;;;11.90;80.04;98336.22;5061406;28;20040;-76
2021/01/31 04:25:44;;;;;;;10.75;2.83;;;;;;;11.87;80.70;98321.13;5060199;28;20422;-76
2021/01/31 04:28:13;;;;;;;9.43;2.70;;;;;;;11.78;80.17;98329.19;5060440;28;20029;-76
2021/01/31 04:30:41;;;;;;;13.82;3.40;;;;;;;11.61;81.70;98321.78;5058694;28;20025;-76
2021/01/31 04:33:07;;;;;;;10.95;3.13;;;;;;;11.59;82.62;98318.66;5059798;28;20032;-76
2021/01/31 04:35:33;;;;;;;9.98;3.30;;;;;;;11.54;82.81;98309.53;5058478;28;20045;-76
2021/01/31 04:37:59;;;;;;;10.23;3.15;;;;;;;11.55;83.99;98285.25;5058329;28;20036;-76
2021/01/31 04:40:28;;;;;;;11.90;3.25;;;;;;;11.43;84.28;98283.78;5040556;28;20027;-76
2021/01/31 04:42:54;;;;;;;18.02;3.70;;;;;;;11.40;84.55;98270.72;5056625;28;20029;-76
2021/01/31 04:45:21;;;;;;;15.82;4.70;;;;;;;11.40;84.12;98290.22;5055877;28;20075;-76
2021/01/31 04:48:08;;;;;;;15.98;3.90;;;;;;;11.45;85.29;98281.41;5056252;28;20033;-76
2021/01/31 04:50:40;;;;;;;12.57;3.53;;;;;;;11.49;85.40;98276.56;5057625;28;20075;-76
2021/01/31 04:53:05;;;;;;;11.80;3.03;;;;;;;11.51;85.68;98284.53;5057929;28;20035;-77
2021/01/31 04:55:52;;;;;;;12.25;3.78;;;;;;;11.55;85.61;98291.59;5057558;28;20029;-76
2021/01/31 04:58:35;;;;;;;15.25;3.85;;;;;;;11.55;85.31;98274.09;5056695;28;20025;-76
2021/01/31 05:01:32;;;;;;;10.32;3.25;;;;;;;11.56;85.67;98275.72;5056961;28;20025;-76
2021/01/31 05:04:11;;;;;;;16.60;2.80;;;;;;;11.48;85.03;98266.63;5045048;28;20095;-76
2021/01/31 05:06:43;;;;;;;5.70;2.35;;;;;;;11.45;85.20;98275.84;5057158;28;20024;-76
2021/01/31 05:09:17;;;;;;;9.55;2.33;;;;;;;11.46;84.91;98266.28;5058457;28;20448;-74
2021/01/31 05:11:54;;;;;;;12.65;3.17;;;;;;;11.43;86.82;98264.31;5058703;28;20095;-76
2021/01/31 05:14:40;;;;;;;10.38;2.85;;;;;;;11.39;86.93;98260.75;5058472;28;20052;-76
2021/01/31 05:17:06;;;;;;;11.75;3.17;;;;;;;11.42;87.32;98253.59;5059022;28;20059;-76
2021/01/31 05:19:33;;;;;;;9.48;3.90;;;;;;;11.43;87.33;98250.38;5058961;28;20051;-76
2021/01/31 05:21:59;;;;;;;18.00;3.95;;;;;;;11.42;87.55;98251.59;5059646;28;20124;-75
2021/01/31 05:24:26;;;;;;;12.80;3.25;;;;;;;11.45;87.72;98248.00;5060252;28;20029;-76
2021/01/31 05:27:01;;;;;;;11.48;3.63;;;;;;;11.38;88.33;98236.13;5058964;28;20037;-76
2021/01/31 05:29:36;;;;;;;12.85;3.65;;;;;;;11.35;88.05;98226.63;5059658;28;20024;-76
2021/01/31 05:32:19;;;;;;;17.77;4.88;;;;;;;11.32;88.65;98230.22;5058817;28;20036;-76
2021/01/31 05:34:54;;;;;;;10.20;4.05;;;;;;;11.37;89.19;98235.34;5059105;28;20052;-77
2021/01/31 05:37:41;;;;;;;11.93;3.67;;;;;;;11.40;88.68;98242.88;5059521;28;20021;-76
2021/01/31 05:40:11;;;;;;;8.73;3.80;;;;;;;11.35;88.96;98250.91;5057509;28;20387;-75
2021/01/31 05:42:43;;;;;;;9.05;2.95;;;;;;;11.31;88.65;98234.22;5059395;28;20025;-77
2021/01/31 05:45:29;;;;;;;11.20;3.92;;;;;;;11.38;89.11;98234.13;5057926;28;20032;-77
2021/01/31 05:47:56;;;;;;;17.38;3.95;;;;;;;11.36;89.46;98247.69;5059130;28;20017;-77
2021/01/31 05:50:38;;;;;;;14.23;4.45;;;;;;;11.44;89.91;98316.00;5059498;28;20063;-77
2021/01/31 05:53:28;;;;;;;15.77;4.57;;;;;;;11.27;88.52;98336.47;5058216;28;20067;-76
2021/01/31 05:56:26;;;;;;;7.05;2.08;;;;;;;10.98;87.49;98331.16;5055497;28;20029;-74
2021/01/31 05:58:58;;;;;;;2.25;1.38;;;;;;;10.74;85.12;98307.91;5055661;28;20025;-73
2021/01/31 06:01:25;;;;;;;1.38;0.85;;;;;;;10.55;85.09;98296.53;5057572;28;20032;-76
2021/01/31 06:03:50;;;;;;;4.32;2.70;;;;;;;10.55;84.95;98329.91;5058793;28;20033;-76
2021/01/31 06:06:20;;;;;;;12.80;5.00;;;;;;;10.47;86.90;98346.63;5058764;28;20041;-76
2021/01/31 06:08:49;;;;;;;5.85;4.10;;;;;;;10.41;85.84;98339.91;5057682;28;20545;-76
2021/01/31 06:11:25;;;;;;;4.60;2.30;;;;;;;10.45;86.59;98328.78;5058519;28;20056;-76
2021/01/31 06:14:14;;;;;;;3.58;1.80;;;;;;;10.36;87.63;98317.31;5057738;28;20663;-76
2021/01/31 06:16:42;;;;;;;11.50;10.63;;;;;;;10.29;87.92;98300.69;5060117;28;20029;-76
2021/01/31 06:19:37;;;;;;;2.15;1.98;;;;;;;10.32;87.74;98317.31;5059995;28;20040;-76
2021/01/31 06:22:05;;;;;;;8.30;3.00;;;;;;;10.43;87.80;98317.25;5057017;28;20044;-76
2021/01/31 06:24:33;;;;;;;2.25;1.83;;;;;;;10.51;86.91;98331.91;5059887;28;20127;-76
2021/01/31 06:27:00;;;;;;;2.42;1.00;;;;;;;10.49;85.26;98340.66;5057814;28;20024;-76
2021/01/31 06:29:47;;;;;;;2.63;1.10;;;;;;;10.39;84.54;98339.53;5056572;28;20055;-76
2021/01/31 06:32:31;;;;;;;2.97;1.00;;;;;;;10.23;85.86;98339.19;5057030;28;20102;-75
2021/01/31 06:34:59;;;;;;;3.67;1.15;;;;;;;10.36;85.59;98340.34;5058063;28;20538;-76
2021/01/31 06:38:18;;;;;;;3.03;1.35;;;;;;;10.43;85.04;98343.06;5055688;28;20037;-76
2021/01/31 06:40:55;;;;;;;7.32;1.60;;;;;;;10.43;85.43;98348.63;5056042;28;20123;-76
2021/01/31 06:43:36;;;;;;;4.50;1.50;;;;;;;10.35;85.74;98355.44;5057421;28;20492;-76
2021/01/31 06:46:22;;;;;;;4.43;1.60;;;;;;;10.27;85.86;98348.31;5058022;28;20033;-76
2021/01/31 06:48:53;;;;;;;6.70;2.55;;;;;;;10.22;86.88;98351.50;5017539;28;20040;-76
2021/01/31 06:51:47;;;;;;;9.38;4.88;;;;;;;10.20;87.37;98357.47;5058455;28;20514;-76
2021/01/31 06:54:31;;;;;;;9.50;4.10;;;;;;;10.20;87.29;98360.25;5059396;28;20021;-77
2021/01/31 06:57:14;;;;;;;9.98;4.70;;;;;;;10.34;87.81;98370.53;5059811;28;20029;-76
2021/01/31 06:59:54;;;;;;;13.75;5.00;;;;;;;10.30;87.65;98378.09;5060593;28;20093;-76
2021/01/31 07:02:28;;;;;;;17.42;12.45;;;;;;;10.56;86.62;98382.34;5059650;28;20112;-76
2021/01/31 07:05:09;;;;;;;9.05;2.83;;;;;;;10.53;85.49;98385.13;5059407;28;20380;-76
2021/01/31 07:07:57;;;;;;;10.20;2.58;;;;;;;10.42;85.40;98385.97;5056749;28;20036;-76
2021/01/31 07:10:35;;;;;;;6.78;3.83;;;;;;;10.37;86.43;98389.19;5042677;28;20068;-76
2021/01/31 07:13:10;;;;;;;10.30;9.30;;;;;;;10.35;87.12;98388.00;5060252;28;20041;-77
2021/01/31 07:15:56;;;;;;;14.32;8.85;;;;;;;10.32;87.47;98389.59;5059877;28;20036;-75
2021/01/31 07:18:23;;;;;;;10.98;7.10;;;;;;;10.27;87.82;98384.47;5062935;28;20118;-76
2021/01/31 07:20:53;;;;;;;18.00;7.10;;;;;;;10.29;88.62;98387.63;5064974;28;20029;-77
2021/01/31 07:23:26;;;;;;;9.90;6.88;;;;;;;10.35;88.32;98394.34;5063582;28;20038;-76
2021/01/31 07:26:10;;;;;;;11.30;7.47;;;;;;;10.30;88.34;98389.22;5065973;28;20033;-76
2021/01/31 07:28:40;;;;;;;9.43;6.82;;;;;;;10.11;88.47;98370.22;5063339;28;20067;-77
2021/01/31 07:31:17;;;;;;;16.17;9.70;;;;;;;10.28;88.49;98380.50;5059551;28;20471;-77
2021/01/31 07:33:56;;;;;;;12.85;8.60;;;;;;;10.26;88.84;98385.66;5062706;28;20033;-77
2021/01/31 07:36:38;;;;;;;16.63;9.55;;;;;;;10.36;88.95;98379.25;5062621;28;20040;-77
2021/01/31 07:39:09;;;;;;;16.92;9.18;;;;;;;10.40;87.17;98368.91;5063270;28;20033;-77
2021/01/31 07:41:37;;;;;;;13.32;6.88;;;;;;;10.41;87.84;98364.94;5063398;28;20025;-77
2021/01/31 07:44:10;;;;;;;14.75;7.70;;;;;;;10.33;88.07;98380.06;5062073;28;20029;-77
2021/01/31 07:46:36;;;;;;;;;;;;;;;10.28;88.04;98380.50;5061826;28;20021;-77
2021/01/31 07:49:04;;;;;;;10.70;4.07;;;;;;;10.26;88.27;98380.09;5060449;28;19908;-77
2021/01/31 07:51:30;;;;;;;9.63;4.78;;;;;;;10.20;89.09;98390.03;5061594;28;20083;-76
2021/01/31 07:53:57;;;;;;;10.38;5.65;;;;;;;10.13;88.55;98390.06;5060398;28;20029;-77
2021/01/31 07:56:26;;;;;;;10.23;5.40;;;;;;;10.14;88.75;98394.41;5059256;28;20036;-77
2021/01/31 07:58:56;;;;;;;11.38;5.93;;;;;;;10.09;88.46;98383.72;5060035;28;20029;-77
2021/01/31 08:01:37;;;;;;;8.55;5.10;;;;;;;10.22;88.64;98384.84;5059432;28;20037;-77
2021/01/31 08:04:15;;;;;;;8.43;4.03;;;;;;;10.16;88.51;98378.91;5059807;28;20056;-77
2021/01/31 08:06:43;;;;;;;11.65;3.78;;;;;;;10.14;87.91;98395.22;5059507;28;20083;-77
2021/01/31 08:09:10;;;;;;;8.02;5.10;;;;;;;10.20;88.13;98395.59;5059425;28;20088;-77
2021/01/31 08:11:38;;;;;;;8.05;4.15;;;;;;;10.19;87.96;98411.47;5060977;28;20033;-77
2021/01/31 08:14:07;;;;;;;6.93;3.28;;;;;;;10.17;88.15;98410.28;5061046;28;20502;-77
2021/01/31 08:16:48;;;;;;;5.90;2.88;;;;;;;10.16;88.22;98412.25;5061806;28;20029;-77
2021/01/31 08:19:17;;;;;;;6.95;3.05;;;;;;;10.30;88.45;98419.00;5060427;28;20083;-76
2021/01/31 08:22:11;;;;;;;9.38;4.00;;;;;;;10.25;87.56;98419.41;5058788;28;20021;-77
2021/01/31 08:25:20;;;;;;;4.20;3.10;;;;;;;10.29;88.39;98409.88;5058511;28;20032;-78
2021/01/31 08:27:46;;;;;;;9.68;5.20;;;;;;;10.28;88.33;98408.31;5059511;28;20036;-78
2021/01/31 08:30:20;;;;;;;8.27;5.18;;;;;;;10.29;88.61;98400.75;5057416;28;20033;-78
2021/01/31 08:33:01;;;;;;;12.18;7.65;;;;;;;10.35;88.06;98413.03;5058997;28;20406;-78
2021/01/31 08:35:37;;;;;;;17.38;7.70;;;;;;;10.41;88.33;98403.06;5058863;28;20099;-78
2021/01/31 08:38:24;;;;;;;11.05;7.13;;;;;;;10.36;87.45;98414.59;5060237;28;20025;-78
2021/01/31 08:40:58;;;;;;;13.68;6.50;;;;;;;10.24;87.70;98371.38;5059607;28;20036;-78
2021/01/31 08:43:52;;;;;;;10.43;6.35;;;;;;;10.47;86.99;98396.66;5060037;28;20037;-78
2021/01/31 08:46:34;;;;;;;31.15;19.65;;;;;;;10.51;86.60;98390.31;5061189;28;20071;-76
2021/01/31 08:49:15;;;;;;;20.85;11.40;;;;;;;10.58;86.76;98401.38;5060153;28;20463;-77
2021/01/31 08:51:54;;;;;;;14.00;8.48;;;;;;;10.62;87.19;98404.94;5073586;28;20047;-81
2021/01/31 08:54:22;;;;;;;12.65;8.82;;;;;;;10.63;86.78;98409.31;5076865;28;20036;-82
2021/01/31 08:56:52;;;;;;;20.52;15.00;;;;;;;10.66;87.34;98419.63;5066121;28;20067;-75
2021/01/31 08:59:45;;;;;;;21.10;11.35;;;;;;;10.70;86.80;98417.59;5062632;28;20032;-74
2021/01/31 09:02:13;;;;;;;16.80;12.15;;;;;;;10.79;85.97;98411.59;5045411;28;20041;-75
2021/01/31 09:05:00;;;;;;;40.10;26.83;;;;;;;10.78;86.04;98410.81;5053715;28;20110;-74
2021/01/31 09:07:31;;;;;;;22.35;14.48;;;;;;;10.83;86.56;98417.94;5055271;28;20033;-74
2021/01/31 09:10:13;;;;;;;22.27;13.80;;;;;;;10.89;85.74;98422.66;5054017;28;20032;-75
2021/01/31 09:12:39;;;;;;;14.23;9.90;;;;;;;10.96;85.77;98425.38;5053400;28;20028;-75
2021/01/31 09:15:08;;;;;;;15.05;11.05;;;;;;;11.03;86.01;98421.78;5037823;28;20041;-74
2021/01/31 09:17:34;;;;;;;13.00;9.00;;;;;;;10.98;84.78;98413.84;5054146;28;20167;-74
2021/01/31 09:20:28;;;;;;;18.27;11.27;;;;;;;11.04;84.95;98411.44;5053558;28;20055;-75
2021/01/31 09:22:58;;;;;;;14.55;8.77;;;;;;;11.02;84.39;98415.41;5053816;28;20029;-73
2021/01/31 09:25:26;;;;;;;17.42;11.05;;;;;;;10.95;84.80;98414.66;5054599;28;20471;-75
2021/01/31 09:28:10;;;;;;;16.40;11.88;;;;;;;10.80;85.19;98408.41;5038496;28;20442;-75
2021/01/31 09:30:39;;;;;;;26.60;13.75;;;;;;;10.87;85.67;98408.38;5053516;28;20468;-72
2021/01/31 09:33:13;;;;;;;21.88;15.60;;;;;;;10.93;86.17;98412.28;5053360;28;20119;-72
2021/01/31 09:35:39;;;;;;;22.27;16.38;;;;;;;10.97;85.89;98404.72;5053047;28;20090;-73
2021/01/31 09:38:20;;;;;;;17.17;13.35;;;;;;;11.01;85.59;98396.31;5053653;28;20040;-73
2021/01/31 09:40:47;;;;;;;19.02;12.45;;;;;;;11.14;85.77;98394.66;5053429;28;20029;-74
2021/01/31 09:43:21;;;;;;;20.25;13.50;;;;;;;10.87;86.17;98397.25;5055247;28;20028;-75
2021/01/31 09:45:48;;;;;;;;;;;;;;;10.90;85.99;98401.97;5053877;28;20029;-74
2021/01/31 09:48:19;;;;;;;24.38;16.92;;;;;;;10.88;86.96;98407.16;5057612;28;19947;-77
2021/01/31 09:51:00;;;;;;;22.73;14.05;;;;;;;10.85;87.28;98410.75;5054895;28;20032;-76
2021/01/31 09:53:34;;;;;;;13.38;10.40;;;;;;;11.03;86.86;98419.00;5054890;28;20033;-75
2021/01/31 09:56:02;;;;;;;15.38;10.93;;;;;;;11.09;86.49;98425.69;5057984;28;20032;-79
2021/01/31 09:58:47;;;;;;;12.45;8.88;;;;;;;11.23;84.61;98422.00;5061647;28;20033;-76
2021/01/31 10:01:23;;;;;;;16.30;10.88;;;;;;;11.26;84.44;98423.97;5059121;28;20163;-76
2021/01/31 10:04:02;;;;;;;15.73;8.45;;;;;;;11.21;84.45;98422.41;5055806;28;20032;-79
2021/01/31 10:06:39;;;;;;;14.95;10.88;;;;;;;11.33;84.00;98423.91;5058522;28;20029;-77
2021/01/31 10:09:05;;;;;;;16.65;10.95;;;;;;;11.39;84.08;98422.25;5054662;28;20471;-75
2021/01/31 10:11:42;;;;;;;18.15;9.77;;;;;;;11.50;84.22;98416.59;5064513;28;20108;-79
2021/01/31 10:14:11;;;;;;;18.05;10.77;;;;;;;11.52;83.01;98412.22;5063179;28;20049;-79
2021/01/31 10:16:39;;;;;;;23.67;12.35;;;;;;;11.61;83.23;98399.78;5062316;28;20024;-77
2021/01/31 10:19:16;;;;;;;17.90;11.98;;;;;;;11.73;82.68;98396.50;5061041;28;20056;-79
2021/01/31 10:21:57;;;;;;;20.17;12.30;;;;;;;11.81;82.55;98392.41;5064380;28;20036;-79
2021/01/31 10:24:31;;;;;;;14.38;9.65;;;;;;;11.87;82.09;98393.56;5066171;28;20035;-78
2021/01/31 10:27:09;;;;;;;18.13;11.38;;;;;;;12.01;82.52;98406.56;5064373;28;20056;-79
2021/01/31 10:29:35;;;;;;;22.98;14.90;;;;;;;12.06;82.57;98398.53;5064828;28;20067;-79
2021/01/31 10:32:25;;;;;;;32.45;17.48;;;;;;;11.78;82.09;98391.25;5064997;28;20058;-79
2021/01/31 10:34:55;;;;;;;17.08;11.88;;;;;;;12.01;82.09;98401.00;5063835;28;20025;-79
2021/01/31 10:37:41;;;;;;;15.43;8.82;;;;;;;12.04;79.99;98394.59;5065835;28;20033;-78
2021/01/31 10:40:08;;;;;;;15.05;7.60;;;;;;;12.12;79.10;98384.16;5465073;22;20051;-77
2021/01/31 10:42:33;;;;;;;15.25;9.13;;;;;;;12.06;80.12;98390.19;5052457;28;20100;-81
2021/01/31 10:45:09;;;;;;;16.35;10.25;;;;;;;12.02;80.33;98388.63;5058089;28;20033;-78
2021/01/31 10:47:35;;;;;;;15.82;10.10;;;;;;;12.11;80.50;98382.56;5058698;28;20047;-78
2021/01/31 10:50:00;;;;;;;13.25;9.55;;;;;;;12.68;79.98;98376.25;5051257;28;20054;-76
2021/01/31 10:52:26;;;;;;;16.02;12.55;;;;;;;12.82;78.29;98370.44;5052867;28;20029;-78
2021/01/31 10:54:51;;;;;;;19.15;10.52;;;;;;;13.05;78.03;98392.81;5061033;28;20415;-77
2021/01/31 10:57:17;;;;;;;14.80;9.07;;;;;;;13.39;74.64;98383.50;5047886;28;20167;-77
2021/01/31 10:59:42;;;;;;;20.83;10.88;;;;;;;13.87;71.08;98382.25;5061920;28;20101;-77
2021/01/31 11:02:08;;;;;;;10.30;5.90;;;;;;;14.41;68.20;98387.56;5061062;28;20067;-76
2021/01/31 11:04:34;;;;;;;18.73;6.25;;;;;;;14.59;63.90;98368.38;5042950;28;20032;-77
2021/01/31 11:06:59;;;;;;;10.65;3.80;;;;;;;14.69;64.09;98363.75;5041511;28;20029;-77
2021/01/31 11:09:25;;;;;;;10.90;5.25;;;;;;;14.99;63.05;98370.28;5041125;28;20123;-77
2021/01/31 11:11:50;;;;;;;17.02;5.00;;;;;;;15.21;62.03;98360.13;5040221;28;20124;-76
2021/01/31 11:14:16;;;;;;;12.10;4.22;;;;;;;14.95;60.69;98359.16;5039610;28;20125;-77
2021/01/31 11:16:41;;;;;;;8.82;3.53;;;;;;;14.54;61.37;98354.94;5039827;28;20052;-77
2021/01/31 11:19:07;;;;;;;8.68;4.40;;;;;;;14.74;63.11;98354.06;5041368;28;20029;-77
2021/01/31 11:21:33;;;;;;;10.20;4.55;;;;;;;14.82;62.33;98344.28;5040221;28;20059;-76
2021/01/31 11:23:58;;;;;;;13.13;5.15;;;;;;;14.52;63.04;98342.56;5039342;28;20033;-76
2021/01/31 11:26:25;;;;;;;9.90;3.85;;;;;;;14.51;63.05;98339.00;5039979;28;20033;-77
2021/01/31 11:28:52;;;;;;;7.03;3.78;;;;;;;14.08;62.34;98347.50;5050892;28;20017;-78
2021/01/31 11:31:19;;;;;;;9.85;4.68;;;;;;;14.02;62.79;98343.63;5062174;28;20013;-76
2021/01/31 11:33:45;;;;;;;14.25;4.72;;;;;;;13.88;63.92;98345.47;5059249;28;20460;-78
2021/01/31 11:36:11;;;;;;;11.45;4.50;;;;;;;14.00;63.66;98341.22;5076088;28;20025;-77
2021/01/31 11:43:46;;;;;;;7.55;3.88;;;;;;;14.52;61.85;98334.97;5468894;22;19904;-76
2021/01/31 11:46:11;;;;;;;11.73;4.07;;;;;;;14.52;61.84;98340.56;5103061;28;20032;-75
2021/01/31 11:51:12;;;;;;;14.40;4.55;;;;;;;14.33;62.47;98325.38;6102386;22;20020;-78
2021/01/31 11:53:39;;;;;;;8.77;4.53;;;;;;;14.26;62.17;98331.09;5063360;28;20031;-76
2021/01/31 12:01:15;;;;;;;13.52;4.55;;;;;;;13.68;63.26;98305.53;5891263;22;20059;-80
2021/01/31 12:06:16;;;;;;;16.38;5.90;;;;;;;13.68;63.20;98293.56;5896230;22;20038;-77
2021/01/31 12:11:17;;;;;;;17.85;5.63;;;;;;;13.68;66.00;98318.72;5793134;22;20024;-77
2021/01/31 12:13:42;;;;;;;13.85;4.45;;;;;;;13.55;66.92;98280.25;5131603;22;20101;-77
2021/01/31 12:18:43;;;;;;;12.93;4.75;;;;;;;13.51;67.34;98281.53;5320025;22;20040;-77